Time;durP1;ratioP1;P1;durP2;ratioP2;P2;SDS_P1;SDS_P2;PMS_P1;PMS_P2;Temp;Humidity;BMP_temperature;BMP_pressure;BME280_temperature;BME280_humidity;BME280_pressure;Samples;Min_cycle;Max_cycle;Signal;HPM_P1;HPM_P2
2023/10/15 00:00:39;;;;;;;4.97;3.63;;;;;;;14.09;81.15;63450.94;5026387;28;20229;-75
2023/10/15 00:03:08;;;;;;;5.47;4.05;;;;;;;13.98;81.04;63434.91;5022526;28;20299;-75
2023/10/15 00:05:36;;;;;;;6.38;4.18;;;;;;;13.88;81.93;63427.09;5012472;28;20238;-77
2023/10/15 00:08:03;;;;;;;6.60;5.00;;;;;;;13.90;81.77;63436.88;5027553;28;20206;-76
2023/10/15 00:10:31;;;;;;;6.55;4.40;;;;;;;13.86;81.24;63430.66;5022478;28;20230;-76
2023/10/15 00:13:00;;;;;;;5.18;4.13;;;;;;;13.83;81.90;63424.47;5023705;28;20221;-77
2023/10/15 00:15:29;;;;;;;7.28;4.25;;;;;;;13.80;81.82;63423.94;5027354;28;20245;-76
2023/10/15 00:17:59;;;;;;;4.95;4.55;;;;;;;13.75;81.88;63418.75;5024345;28;20191;-76
2023/10/15 00:20:31;;;;;;;4.82;3.97;;;;;;;13.76;82.01;63417.22;5024653;28;20234;-76
2023/10/15 00:23:04;;;;;;;6.80;3.75;;;;;;;13.73;82.67;63416.66;5019827;28;20380;-77
2023/10/15 00:25:35;;;;;;;4.68;4.10;;;;;;;13.70;82.77;63418.66;5022201;28;20309;-76
2023/10/15 00:28:05;;;;;;;5.97;4.13;;;;;;;13.63;83.00;63408.84;5012711;28;20203;-76
2023/10/15 00:30:34;;;;;;;3.90;3.60;;;;;;;13.66;82.76;63406.84;5026165;28;20230;-78
2023/10/15 00:33:06;;;;;;;4.20;3.83;;;;;;;13.58;83.29;63403.66;5024105;28;20198;-76
2023/10/15 00:35:35;;;;;;;4.22;3.92;;;;;;;13.60;83.19;63401.13;5024135;28;20268;-76
2023/10/15 00:38:07;;;;;;;7.15;4.35;;;;;;;13.61;82.94;63407.28;5025476;28;20222;-77
2023/10/15 00:40:37;;;;;;;5.47;3.85;;;;;;;13.61;82.96;63409.84;5025302;28;20219;-76
2023/10/15 00:43:06;;;;;;;4.72;4.32;;;;;;;13.57;83.74;63402.59;5019809;28;20253;-76
2023/10/15 00:45:43;;;;;;;5.70;3.83;;;;;;;13.59;84.51;63402.66;5024063;28;20265;-77
2023/10/15 00:48:19;;;;;;;7.28;4.35;;;;;;;13.56;84.04;63396.97;5023830;28;20198;-76
2023/10/15 00:50:47;;;;;;;4.18;3.60;;;;;;;13.60;84.61;63405.72;5025493;28;20217;-76
2023/10/15 00:53:27;;;;;;;4.97;3.65;;;;;;;13.62;84.12;63402.69;5025596;28;20419;-77
2023/10/15 00:55:59;;;;;;;6.43;3.75;;;;;;;13.60;85.86;63403.16;5018294;28;20241;-77
2023/10/15 00:58:34;;;;;;;8.60;4.72;;;;;;;13.56;85.93;63396.97;5025931;28;20203;-77
2023/10/15 01:01:19;;;;;;;5.47;3.70;;;;;;;13.51;86.17;63393.81;5025517;28;20241;-75
2023/10/15 01:03:50;;;;;;;9.90;4.10;;;;;;;13.49;86.01;63394.84;5025475;28;20276;-76
2023/10/15 01:06:26;;;;;;;4.80;4.35;;;;;;;13.51;86.86;63396.38;5019585;28;20223;-76
2023/10/15 01:08:54;;;;;;;6.40;4.18;;;;;;;13.55;86.31;63397.97;5024986;28;20191;-76
2023/10/15 01:11:27;;;;;;;4.18;3.83;;;;;;;13.56;85.98;63396.97;5022742;28;20240;-76
2023/10/15 01:13:56;;;;;;;5.10;3.97;;;;;;;13.58;85.82;63401.09;5028072;28;20447;-76
2023/10/15 01:16:27;;;;;;;6.70;4.65;;;;;;;13.54;86.10;63394.38;5027260;28;20261;-76
2023/10/15 01:19:06;;;;;;;4.45;4.05;;;;;;;13.55;85.68;63398.50;5030230;28;20199;-77
2023/10/15 01:21:43;;;;;;;6.28;4.10;;;;;;;13.56;86.01;63399.00;5028844;28;20245;-77
2023/10/15 01:24:10;;;;;;;9.85;4.05;;;;;;;13.52;85.65;63395.38;5021938;28;20226;-77
2023/10/15 01:26:40;;;;;;;4.65;4.20;;;;;;;13.45;86.05;63388.13;5027562;28;20266;-76
2023/10/15 01:29:07;;;;;;;7.28;4.28;;;;;;;13.43;85.94;63382.97;5029413;28;20199;-77
2023/10/15 01:31:50;;;;;;;9.88;3.55;;;;;;;13.54;84.93;63394.38;5027552;28;20214;-77
2023/10/15 01:34:21;;;;;;;4.13;3.83;;;;;;;13.46;86.38;63386.59;5029085;28;20190;-77
2023/10/15 01:36:50;;;;;;;10.40;4.40;;;;;;;13.48;86.15;63393.25;5029184;28;20203;-76
2023/10/15 01:39:22;;;;;;;10.35;3.97;;;;;;;13.47;86.60;63392.22;5030031;28;20230;-76
2023/10/15 01:41:50;;;;;;;10.82;4.95;;;;;;;13.44;86.77;63389.13;5025842;28;20218;-76
2023/10/15 01:44:19;;;;;;;8.55;4.78;;;;;;;13.56;85.96;63399.00;5027629;28;20223;-76
2023/10/15 01:46:48;;;;;;;10.65;5.38;;;;;;;13.49;83.96;63391.75;5028785;28;20199;-77
2023/10/15 01:49:30;;;;;;;9.25;5.20;;;;;;;13.46;84.57;63394.25;5028433;28;20206;-76
2023/10/15 01:52:05;;;;;;;5.13;4.50;;;;;;;13.46;84.78;63386.59;5027696;28;20197;-75
2023/10/15 01:54:33;;;;;;;9.05;4.55;;;;;;;13.48;84.51;63388.16;5026830;28;20220;-75
2023/10/15 01:57:06;;;;;;;5.38;4.18;;;;;;;13.51;84.42;63398.94;5026972;28;20207;-76
2023/10/15 01:59:43;;;;;;;7.22;4.85;;;;;;;13.53;83.62;63393.34;5027146;28;20229;-76
2023/10/15 02:02:13;;;;;;;7.05;4.75;;;;;;;13.60;83.25;63401.13;5024439;28;20475;-75
2023/10/15 02:04:45;;;;;;;7.57;4.95;;;;;;;13.60;83.16;63408.28;5014303;28;20241;-75
2023/10/15 02:07:16;;;;;;;4.93;4.07;;;;;;;13.52;82.24;63397.94;5027452;28;20221;-74
2023/10/15 02:09:44;;;;;;;8.15;5.13;;;;;;;13.55;81.49;63397.97;5028240;28;20234;-76
2023/10/15 02:12:17;;;;;;;6.25;5.00;;;;;;;13.49;82.03;63394.31;5025540;28;20226;-76
2023/10/15 02:14:47;;;;;;;6.05;5.20;;;;;;;13.50;82.74;63385.09;5029431;28;20245;-74
2023/10/15 02:17:14;;;;;;;5.55;4.60;;;;;;;13.43;84.42;63386.03;5025004;28;20207;-76
2023/10/15 02:19:43;;;;;;;7.55;4.68;;;;;;;13.37;85.91;63381.84;5027190;28;20218;-76
2023/10/15 02:22:12;;;;;;;7.43;4.70;;;;;;;13.38;86.81;63380.31;5025577;28;20199;-76
2023/10/15 02:24:46;;;;;;;8.25;4.55;;;;;;;13.29;87.81;63370.97;5018355;28;20297;-76
2023/10/15 02:27:17;;;;;;;8.43;5.45;;;;;;;13.28;88.31;63375.06;5024463;28;20202;-77
2023/10/15 02:29:49;;;;;;;8.32;4.63;;;;;;;13.22;88.04;63364.25;5029175;28;20227;-77
2023/10/15 02:32:31;;;;;;;6.43;5.32;;;;;;;13.21;88.57;63358.09;5026162;28;20199;-76
2023/10/15 02:34:59;;;;;;;7.93;4.97;;;;;;;13.11;90.08;63352.31;5024229;28;20293;-76
2023/10/15 02:37:28;;;;;;;10.02;5.38;;;;;;;13.04;91.02;63345.06;5028430;28;20262;-76
2023/10/15 02:39:56;;;;;;;8.13;5.25;;;;;;;13.02;91.33;63340.44;5029494;28;20218;-76
2023/10/15 02:42:30;;;;;;;9.70;5.55;;;;;;;12.98;91.03;63336.78;5026669;28;20222;-77
2023/10/15 02:44:59;;;;;;;9.15;5.90;;;;;;;12.98;91.13;63341.38;5024697;28;20301;-75
2023/10/15 02:47:31;;;;;;;9.27;5.70;;;;;;;12.99;91.17;63337.31;5027696;28;20199;-77
2023/10/15 02:50:02;;;;;;;5.50;5.05;;;;;;;12.95;90.83;63333.16;5027626;28;20253;-77
2023/10/15 02:52:43;;;;;;;5.85;5.03;;;;;;;12.92;91.22;63337.69;5024399;28;20200;-76
2023/10/15 02:55:11;;;;;;;7.30;4.70;;;;;;;12.88;92.04;63328.97;5028386;28;20542;-77
2023/10/15 02:57:40;;;;;;;8.00;4.68;;;;;;;12.87;93.45;63330.50;5026037;28;20241;-76
2023/10/15 03:00:18;;;;;;;8.07;5.38;;;;;;;12.84;93.63;63321.75;5030466;28;20274;-76
2023/10/15 03:02:53;;;;;;;10.13;5.25;;;;;;;12.84;93.53;63324.31;5029814;28;20198;-76
2023/10/15 03:05:38;;;;;;;6.13;4.65;;;;;;;12.74;94.10;63314.44;5014980;28;20222;-76
2023/10/15 03:08:06;;;;;;;7.32;4.80;;;;;;;12.71;94.85;63308.78;5026759;28;20265;-76
2023/10/15 03:10:47;;;;;;;7.25;5.68;;;;;;;12.65;95.59;63303.06;5025773;28;20214;-77
2023/10/15 03:13:15;;;;;;;6.03;5.00;;;;;;;12.55;96.05;63294.75;5024652;28;20214;-76
2023/10/15 03:15:48;;;;;;;9.52;5.13;;;;;;;12.54;96.32;63296.78;5027453;28;20230;-77
2023/10/15 03:18:21;;;;;;;7.72;5.22;;;;;;;12.45;96.78;63282.34;5027640;28;20210;-76
2023/10/15 03:20:49;;;;;;;5.63;4.47;;;;;;;12.47;97.44;63286.44;5015994;28;20299;-77
2023/10/15 03:23:17;;;;;;;4.55;4.00;;;;;;;12.46;97.43;63282.84;5015470;28;20215;-76
2023/10/15 03:25:47;;;;;;;6.20;5.40;;;;;;;12.44;98.42;63278.22;5008218;28;20238;-76
2023/10/15 03:28:18;;;;;;;10.88;5.55;;;;;;;12.43;98.58;63280.25;5007864;28;20205;-75
2023/10/15 03:30:45;;;;;;;5.00;4.40;;;;;;;12.45;98.81;63279.25;5023211;28;20211;-75
2023/10/15 03:33:13;;;;;;;10.00;5.00;;;;;;;12.43;98.99;63282.28;5027386;28;20249;-77
2023/10/15 03:35:43;;;;;;;8.52;4.38;;;;;;;12.36;99.25;63275.03;5025590;28;20413;-77
2023/10/15 03:38:14;;;;;;;6.22;4.82;;;;;;;12.36;99.71;63272.47;5025050;28;20217;-76
2023/10/15 03:40:47;;;;;;;7.53;4.97;;;;;;;12.35;100.00;63274.53;5027464;28;20222;-76
2023/10/15 03:43:20;;;;;;;7.15;5.25;;;;;;;12.36;100.00;63272.47;5026447;28;20227;-77
2023/10/15 03:45:53;;;;;;;6.32;3.97;;;;;;;12.45;100.00;63289.47;5025897;28;20344;-76
2023/10/15 03:48:28;;;;;;;8.27;4.40;;;;;;;12.40;100.00;63279.19;5020830;28;20207;-77
2023/10/15 03:50:57;;;;;;;5.68;4.35;;;;;;;12.35;100.00;63274.53;5012678;28;20216;-76
2023/10/15 03:53:27;;;;;;;4.78;4.47;;;;;;;12.33;100.00;63271.94;5019919;28;20496;-77
2023/10/15 03:55:57;;;;;;;6.50;4.63;;;;;;;12.34;100.00;63272.97;5023464;28;20293;-77
2023/10/15 03:58:26;;;;;;;4.43;4.03;;;;;;;12.36;100.00;63272.47;5023040;28;20199;-77
2023/10/15 04:01:11;;;;;;;5.72;4.50;;;;;;;12.36;100.00;63273.00;5025704;28;20543;-77
2023/10/15 04:03:42;;;;;;;4.30;3.88;;;;;;;12.37;100.00;63279.13;5023623;28;20199;-76
2023/10/15 04:06:13;;;;;;;4.68;4.30;;;;;;;12.40;100.00;63279.19;5025190;28;20299;-77
2023/10/15 04:08:59;;;;;;;6.55;4.45;;;;;;;12.35;100.00;63274.53;5025797;28;20198;-77
2023/10/15 04:11:30;;;;;;;4.00;3.70;;;;;;;12.37;100.00;63276.59;5026527;28;20241;-79
2023/10/15 04:14:11;;;;;;;5.80;5.30;;;;;;;12.32;100.00;63268.84;5021128;28;20416;-76
2023/10/15 04:16:39;;;;;;;8.32;5.63;;;;;;;12.38;99.63;63277.63;5025084;28;20195;-76
2023/10/15 04:19:08;;;;;;;5.40;4.78;;;;;;;12.32;99.29;63266.31;5023844;28;20218;-76
2023/10/15 04:21:38;;;;;;;6.65;5.35;;;;;;;12.30;99.36;63268.81;5011258;28;20203;-76
2023/10/15 04:24:07;;;;;;;5.70;5.15;;;;;;;12.30;99.48;63266.78;5017359;28;20199;-76
2023/10/15 04:26:35;;;;;;;5.93;4.93;;;;;;;12.28;100.00;63266.75;5025824;28;20221;-76
2023/10/15 04:29:16;;;;;;;10.35;5.70;;;;;;;12.26;99.31;63267.75;5014535;28;20265;-76
2023/10/15 04:31:46;;;;;;;6.50;5.47;;;;;;;12.23;99.73;63259.00;5026136;28;20601;-76
2023/10/15 04:34:17;;;;;;;8.57;6.50;;;;;;;12.19;100.00;63257.94;5023149;28;20237;-76
2023/10/15 04:36:46;;;;;;;8.65;5.30;;;;;;;12.13;100.00;63251.22;5013886;28;20196;-75
2023/10/15 04:39:15;;;;;;;6.07;4.90;;;;;;;12.15;100.00;63253.78;5007666;28;20203;-76
2023/10/15 04:41:43;;;;;;;8.38;4.85;;;;;;;12.14;100.00;63247.13;5023830;28;20214;-77
2023/10/15 04:44:20;;;;;;;8.50;4.85;;;;;;;12.17;100.00;63255.88;5024411;28;20207;-76
2023/10/15 04:46:47;;;;;;;8.80;4.82;;;;;;;12.23;100.00;63259.53;5021332;28;20194;-76
2023/10/15 04:49:17;;;;;;;9.80;4.85;;;;;;;12.10;100.00;63246.06;5011728;28;20291;-78
2023/10/15 04:51:45;;;;;;;10.68;4.53;;;;;;;12.15;100.00;63253.28;5021657;28;20213;-77
2023/10/15 04:54:13;;;;;;;6.70;4.40;;;;;;;12.16;100.00;63256.88;5026327;28;20221;-77
2023/10/15 04:56:42;;;;;;;18.83;5.30;;;;;;;12.29;100.00;63265.22;5019967;28;20196;-77
2023/10/15 04:59:11;;;;;;;11.35;6.10;;;;;;;12.32;100.00;63268.84;5020046;28;20237;-78
2023/10/15 05:01:38;;;;;;;7.57;4.43;;;;;;;12.37;100.00;63276.09;5023619;28;20198;-77
2023/10/15 05:04:07;;;;;;;7.35;5.10;;;;;;;12.47;100.00;63281.88;5032324;28;20221;-77
2023/10/15 05:06:35;;;;;;;7.53;5.47;;;;;;;12.51;100.00;63288.06;5028981;28;20230;-77
2023/10/15 05:09:08;;;;;;;6.32;5.05;;;;;;;12.52;100.00;63289.59;5029498;28;20217;-76
2023/10/15 05:11:36;;;;;;;7.05;4.82;;;;;;;12.64;99.75;63304.06;5030419;28;20206;-77
2023/10/15 05:14:04;;;;;;;5.43;4.93;;;;;;;12.71;98.47;63309.31;5029855;28;20206;-77
2023/10/15 05:16:33;;;;;;;8.73;5.72;;;;;;;12.82;97.73;63327.84;5029167;28;20218;-76
2023/10/15 05:19:01;;;;;;;13.25;5.82;;;;;;;12.92;95.95;63333.13;5024510;28;20198;-76
2023/10/15 05:21:29;;;;;;;6.30;5.20;;;;;;;13.00;95.79;63340.88;5027228;28;20230;-78
2023/10/15 05:23:56;;;;;;;7.97;5.93;;;;;;;13.05;94.97;63346.63;5034194;28;20261;-77
2023/10/15 05:26:25;;;;;;;11.00;6.20;;;;;;;13.13;93.70;63349.78;5024038;28;20226;-76
2023/10/15 05:28:52;;;;;;;8.15;6.05;;;;;;;13.19;93.48;63356.03;5014797;28;20218;-78
2023/10/15 05:31:20;;;;;;;8.50;6.57;;;;;;;13.27;93.14;63371.47;5024270;28;20286;-77
2023/10/15 05:33:49;;;;;;;6.20;5.63;;;;;;;13.35;93.20;63377.22;5016406;28;20207;-76
2023/10/15 05:36:17;;;;;;;6.65;5.30;;;;;;;13.50;92.37;63390.22;5028673;28;20227;-76
2023/10/15 05:38:44;;;;;;;8.25;6.03;;;;;;;13.59;92.92;63402.13;5029796;28;20198;-76
2023/10/15 05:41:11;;;;;;;7.93;5.00;;;;;;;13.74;93.03;63413.09;5025881;28;20229;-79
2023/10/15 05:43:38;;;;;;;8.32;6.00;;;;;;;13.91;92.55;63435.84;5025438;28;20213;-75
2023/10/15 05:46:05;;;;;;;9.52;5.72;;;;;;;14.05;90.45;63449.88;5020659;28;20243;-76
2023/10/15 05:48:32;;;;;;;6.90;4.90;;;;;;;14.11;90.51;63453.03;5024619;28;20201;-77
2023/10/15 05:51:01;;;;;;;12.43;5.95;;;;;;;14.16;89.41;63461.28;5026190;28;20539;-78
2023/10/15 05:53:28;;;;;;;10.98;5.95;;;;;;;14.25;86.59;63473.22;5030821;28;20202;-76
2023/10/15 05:55:56;;;;;;;6.15;4.53;;;;;;;14.39;88.28;63485.19;5028609;28;20230;-77
2023/10/15 05:58:23;;;;;;;9.23;4.97;;;;;;;14.54;89.16;63500.25;5020239;28;20202;-77
2023/10/15 06:00:51;;;;;;;5.28;4.78;;;;;;;14.58;88.87;63499.28;5029547;28;20215;-76
2023/10/15 06:03:19;;;;;;;14.27;5.55;;;;;;;14.66;86.93;63508.13;5027913;28;20230;-77
2023/10/15 06:05:46;;;;;;;7.57;5.10;;;;;;;14.71;85.81;63515.88;5026929;28;20238;-74
2023/10/15 06:08:15;;;;;;;7.40;4.50;;;;;;;14.80;84.36;63525.22;5023766;28;20246;-76
2023/10/15 06:10:42;;;;;;;12.85;5.80;;;;;;;14.88;84.42;63533.53;5013853;28;20277;-76
2023/10/15 06:13:09;;;;;;;7.88;7.07;;;;;;;14.93;86.39;63535.63;5024199;28;20203;-77
2023/10/15 06:15:37;;;;;;;12.75;6.70;;;;;;;15.01;86.55;63546.53;5019882;28;20523;-77
2023/10/15 06:18:05;;;;;;;9.40;6.63;;;;;;;14.98;85.52;63545.97;5023112;28;20222;-76
2023/10/15 06:20:32;;;;;;;14.50;7.28;;;;;;;15.04;85.01;63550.16;5023311;28;20225;-76
2023/10/15 06:23:03;;;;;;;8.00;5.78;;;;;;;15.11;82.42;63558.94;5026306;28;20206;-76
2023/10/15 06:25:32;;;;;;;14.95;6.30;;;;;;;15.12;82.62;63560.00;5019682;28;20258;-74
2023/10/15 06:28:01;;;;;;;7.95;6.00;;;;;;;15.18;80.99;63571.34;5013835;28;20194;-77
2023/10/15 06:30:28;;;;;;;9.00;6.13;;;;;;;15.27;80.42;63576.09;5014790;28;20218;-76
2023/10/15 06:32:55;;;;;;;10.52;6.07;;;;;;;15.35;79.13;63581.31;5021499;28;20203;-76
2023/10/15 06:35:25;;;;;;;9.43;6.45;;;;;;;15.42;77.41;63596.31;5027563;28;20240;-78
2023/10/15 06:37:55;;;;;;;7.72;5.50;;;;;;;15.55;75.46;63607.78;5027755;28;20225;-76
2023/10/15 06:40:24;;;;;;;8.32;5.88;;;;;;;15.60;76.33;63607.34;5024017;28;20290;-78
2023/10/15 06:42:59;;;;;;;5.90;5.35;;;;;;;15.73;75.77;63626.50;5031227;28;20206;-77
2023/10/15 06:45:27;;;;;;;5.05;4.53;;;;;;;15.77;72.22;63625.53;5027908;28;20229;-78
2023/10/15 06:47:55;;;;;;;9.82;5.85;;;;;;;15.76;70.89;63626.53;5028376;28;20209;-76
2023/10/15 06:50:22;;;;;;;7.15;5.07;;;;;;;15.67;71.11;63617.19;4995122;28;20264;-77
2023/10/15 06:52:50;;;;;;;6.53;5.40;;;;;;;15.85;70.03;63636.41;4995022;28;20200;-77
2023/10/15 06:55:20;;;;;;;7.90;5.47;;;;;;;15.97;68.91;63645.81;5003363;28;20229;-75
2023/10/15 06:57:47;;;;;;;5.75;4.72;;;;;;;16.08;68.75;63662.91;5003983;28;20247;-76
2023/10/15 07:00:22;;;;;;;8.88;5.20;;;;;;;16.07;68.62;63654.16;4989688;28;20223;-76
2023/10/15 07:02:50;;;;;;;11.57;6.18;;;;;;;16.20;70.11;63670.22;4993355;28;20226;-77
2023/10/15 07:05:18;;;;;;;9.95;5.78;;;;;;;16.36;69.68;63686.34;5004679;28;20519;-76
2023/10/15 07:07:46;;;;;;;6.88;5.90;;;;;;;16.38;69.32;63687.91;4992100;28;20207;-78
2023/10/15 07:10:15;;;;;;;7.45;5.32;;;;;;;16.49;68.83;63699.91;4991097;28;20254;-77
2023/10/15 07:12:47;;;;;;;8.57;5.50;;;;;;;16.55;68.54;63708.72;4990502;28;20610;-76
2023/10/15 07:15:16;;;;;;;7.55;5.55;;;;;;;16.62;67.70;63718.56;5007108;28;20226;-76
2023/10/15 07:17:45;;;;;;;12.13;6.47;;;;;;;16.67;67.69;63720.69;5008056;28;20207;-76
2023/10/15 07:20:17;;;;;;;7.65;5.60;;;;;;;16.66;66.50;63717.59;4995292;28;20210;-77
2023/10/15 07:22:46;;;;;;;14.65;6.45;;;;;;;16.75;66.28;63729.53;5009648;28;20356;-77
2023/10/15 07:25:14;;;;;;;6.00;5.38;;;;;;;16.77;65.87;63731.63;5007055;28;20230;-75
2023/10/15 07:27:42;;;;;;;6.65;5.25;;;;;;;16.80;66.43;63732.16;5007423;28;20431;-76
2023/10/15 07:30:13;;;;;;;11.13;5.72;;;;;;;16.85;65.31;63737.38;5005376;28;20250;-76
2023/10/15 07:32:43;;;;;;;7.82;5.40;;;;;;;16.96;65.14;63756.53;4995468;28;20199;-76
2023/10/15 07:35:12;;;;;;;9.07;5.43;;;;;;;17.02;64.60;63762.78;4994587;28;20286;-76
2023/10/15 07:37:41;;;;;;;9.50;6.40;;;;;;;17.00;64.01;63758.13;5011056;28;20214;-75
2023/10/15 07:40:16;;;;;;;6.65;5.05;;;;;;;16.94;62.98;63746.75;5006664;28;20223;-76
2023/10/15 07:42:44;;;;;;;7.63;5.82;;;;;;;17.02;62.65;63757.63;5005491;28;20198;-76
2023/10/15 07:45:11;;;;;;;8.98;5.40;;;;;;;17.10;62.14;63762.88;5006542;28;20242;-77
2023/10/15 07:47:39;;;;;;;5.22;4.78;;;;;;;17.20;61.82;63776.34;4988945;28;20488;-76
2023/10/15 07:50:09;;;;;;;9.77;5.60;;;;;;;17.29;61.74;63785.72;4989099;28;20243;-76
2023/10/15 07:52:37;;;;;;;6.60;5.07;;;;;;;17.33;60.54;63791.94;5004055;28;20206;-76
2023/10/15 07:55:06;;;;;;;6.85;4.68;;;;;;;17.30;60.92;63788.81;5007172;28;20286;-76
2023/10/15 07:57:33;;;;;;;4.85;4.45;;;;;;;17.34;61.07;63793.50;5005709;28;20233;-76
2023/10/15 08:00:02;;;;;;;9.98;4.75;;;;;;;17.52;61.35;63809.19;5005470;28;20246;-75
2023/10/15 08:02:29;;;;;;;8.73;4.90;;;;;;;17.73;61.53;63833.09;4990136;28;20207;-76
2023/10/15 08:04:57;;;;;;;6.80;4.78;;;;;;;17.76;60.26;63838.78;5007528;28;20450;-76
2023/10/15 08:07:29;;;;;;;9.05;5.13;;;;;;;17.95;59.09;63853.44;5009497;28;20234;-76
2023/10/15 08:09:57;;;;;;;8.20;4.75;;;;;;;18.00;58.70;63858.66;5005433;28;20211;-76
2023/10/15 08:12:27;;;;;;;7.28;4.97;;;;;;;18.06;59.13;63862.84;5005900;28;20210;-76
2023/10/15 08:14:57;;;;;;;10.40;5.57;;;;;;;18.01;59.60;63860.22;5008841;28;20296;-77
2023/10/15 08:17:26;;;;;;;10.52;4.70;;;;;;;18.11;59.17;63875.78;5006891;28;20225;-77
2023/10/15 08:19:54;;;;;;;10.02;5.60;;;;;;;18.12;58.38;63866.00;4994792;28;20223;-75
2023/10/15 08:22:23;;;;;;;5.53;5.03;;;;;;;18.07;58.43;63865.94;5008924;28;20218;-77
2023/10/15 08:24:52;;;;;;;5.40;4.88;;;;;;;18.18;58.94;63877.94;5007498;28;20238;-78
2023/10/15 08:27:20;;;;;;;12.10;5.28;;;;;;;18.38;58.60;63898.75;4988788;28;20271;-76
2023/10/15 08:29:48;;;;;;;5.88;5.32;;;;;;;18.60;57.52;63923.78;5007758;28;20242;-77
2023/10/15 08:32:16;;;;;;;9.45;5.68;;;;;;;18.74;56.98;63930.09;5007401;28;20233;-77
2023/10/15 08:34:44;;;;;;;8.30;5.82;;;;;;;18.82;56.91;63946.16;5006612;28;20215;-76
2023/10/15 08:37:12;;;;;;;6.03;5.43;;;;;;;19.03;57.20;63968.06;4998888;28;20207;-76
2023/10/15 08:39:39;;;;;;;6.80;5.88;;;;;;;19.10;55.97;63968.13;4991397;28;20214;-76
2023/10/15 08:42:13;;;;;;;8.48;6.07;;;;;;;19.14;55.53;63976.94;5006050;28;20238;-76
2023/10/15 08:44:41;;;;;;;7.30;6.28;;;;;;;19.11;56.27;63979.50;5001442;28;20266;-77
2023/10/15 08:47:11;;;;;;;13.52;6.55;;;;;;;18.96;55.71;63958.72;4987693;28;20535;-77
2023/10/15 08:49:46;;;;;;;6.00;4.82;;;;;;;19.12;55.72;63972.78;4995922;28;20301;-76
2023/10/15 08:52:16;;;;;;;13.77;6.25;;;;;;;19.20;55.09;63983.72;5007554;28;20221;-76
2023/10/15 08:54:44;;;;;;;9.55;6.15;;;;;;;19.14;54.98;63974.88;4993387;28;20242;-77
2023/10/15 08:57:14;;;;;;;9.75;5.78;;;;;;;19.04;55.36;63967.03;5004220;28;20487;-77
2023/10/15 08:59:43;;;;;;;11.43;6.57;;;;;;;19.27;55.81;63990.50;5007951;28;20218;-77
2023/10/15 09:02:10;;;;;;;13.32;6.90;;;;;;;19.49;54.23;64010.88;5005067;28;20199;-76
2023/10/15 09:04:38;;;;;;;12.60;7.25;;;;;;;19.42;53.27;64009.28;5006024;28;20417;-77
2023/10/15 09:07:05;;;;;;;8.38;6.30;;;;;;;19.44;52.98;64006.19;5005818;28;20256;-77
2023/10/15 09:09:33;;;;;;;19.95;7.40;;;;;;;19.39;53.06;64008.72;5006208;28;20230;-75
2023/10/15 09:12:01;;;;;;;11.82;7.93;;;;;;;19.33;53.38;63996.78;5004186;28;20217;-77
2023/10/15 09:14:40;;;;;;;10.70;8.23;;;;;;;19.50;53.71;64012.44;5006118;28;20227;-76
2023/10/15 09:17:09;;;;;;;9.25;7.05;;;;;;;19.42;53.38;64006.69;5005469;28;20202;-76
2023/10/15 09:19:38;;;;;;;17.52;7.50;;;;;;;19.73;52.82;64037.97;5006858;28;20211;-78
2023/10/15 09:22:07;;;;;;;11.50;7.18;;;;;;;19.96;53.20;64059.38;5000532;28;20202;-78
2023/10/15 09:24:34;;;;;;;9.98;7.20;;;;;;;20.15;51.51;64079.72;4988404;28;20231;-78
2023/10/15 09:27:05;;;;;;;9.23;5.80;;;;;;;20.33;51.58;64098.53;4986212;28;20278;-76
2023/10/15 09:29:32;;;;;;;14.57;6.85;;;;;;;20.33;51.07;64101.13;4988500;28;20235;-75
2023/10/15 09:32:04;;;;;;;9.95;6.85;;;;;;;20.41;50.60;64109.47;5006321;28;20558;-78
2023/10/15 09:34:32;;;;;;;13.60;7.10;;;;;;;20.46;50.75;64114.69;5008743;28;20222;-76
2023/10/15 09:37:00;;;;;;;12.48;7.03;;;;;;;20.62;50.74;64136.56;5009804;28;20198;-76
2023/10/15 09:39:29;;;;;;;14.07;7.95;;;;;;;20.67;49.68;64134.00;5001496;28;20227;-75
2023/10/15 09:41:57;;;;;;;9.60;6.97;;;;;;;20.56;49.44;64127.72;5005787;28;20245;-77
2023/10/15 09:44:25;;;;;;;14.48;6.90;;;;;;;20.54;49.34;64119.91;5010872;28;20218;-77
2023/10/15 09:46:52;;;;;;;9.13;6.30;;;;;;;20.60;49.75;64126.69;5009946;28;20234;-77
2023/10/15 09:49:22;;;;;;;14.95;6.97;;;;;;;20.66;50.31;64132.44;4993579;28;20535;-76
2023/10/15 09:51:50;;;;;;;10.93;6.75;;;;;;;20.38;49.28;64105.81;4990126;28;20408;-77
2023/10/15 09:54:19;;;;;;;10.57;6.68;;;;;;;20.33;50.03;64101.13;4992567;28;20496;-77
2023/10/15 09:56:47;;;;;;;7.20;6.32;;;;;;;20.53;50.10;64122.00;4998271;28;20213;-76
2023/10/15 09:59:15;;;;;;;8.27;6.32;;;;;;;20.68;49.37;64137.66;4989236;28;20257;-78
2023/10/15 10:01:49;;;;;;;13.27;6.30;;;;;;;20.68;49.51;64137.13;5011318;28;20237;-76
2023/10/15 10:04:42;;;;;;;12.57;6.53;;;;;;;20.76;48.66;64150.66;5008941;28;20290;-77
2023/10/15 10:07:29;;;;;;;7.32;6.13;;;;;;;20.75;48.79;64146.50;5006933;28;20238;-76
2023/10/15 10:10:27;;;;;;;12.43;6.63;;;;;;;20.80;48.83;64149.13;5011486;28;20218;-76
2023/10/15 10:13:21;;;;;;;13.95;6.75;;;;;;;20.88;49.30;64157.50;4990183;28;20616;-77
2023/10/15 10:15:54;;;;;;;15.30;6.60;;;;;;;20.97;47.99;64166.88;4989440;28;20257;-77
2023/10/15 10:18:23;;;;;;;7.57;6.47;;;;;;;21.26;47.74;64197.19;4989653;28;20196;-78
2023/10/15 10:20:52;;;;;;;7.32;6.20;;;;;;;21.38;47.68;64212.81;4997884;28;20227;-77
2023/10/15 10:23:22;;;;;;;9.52;6.13;;;;;;;21.39;47.43;64211.28;5008632;28;20386;-77
2023/10/15 10:25:51;;;;;;;10.88;7.57;;;;;;;21.63;47.36;64233.25;5011629;28;20223;-77
2023/10/15 10:28:19;;;;;;;12.90;5.85;;;;;;;21.81;46.33;64254.13;5007625;28;20286;-77
2023/10/15 10:30:54;;;;;;;7.85;5.65;;;;;;;21.89;46.71;64260.44;5003558;28;20216;-77
2023/10/15 10:33:48;;;;;;;10.85;5.40;;;;;;;22.09;45.81;64280.81;5007943;28;20239;-76
2023/10/15 10:36:18;;;;;;;10.10;5.50;;;;;;;22.09;45.94;64283.41;5008701;28;20261;-76
2023/10/15 10:38:46;;;;;;;11.43;5.68;;;;;;;22.20;45.56;64297.47;5006861;28;20282;-76
2023/10/15 10:41:14;;;;;;;11.73;5.53;;;;;;;22.39;45.49;64312.16;5009285;28;20219;-77
2023/10/15 10:43:42;;;;;;;23.50;11.57;;;;;;;22.39;44.74;64317.88;5006027;28;20191;-76
2023/10/15 10:46:20;;;;;;;8.85;5.18;;;;;;;22.54;44.64;64336.16;5008532;28;20259;-76
2023/10/15 10:49:03;;;;;;;13.13;5.38;;;;;;;22.65;44.23;64345.06;4989721;28;20199;-76
2023/10/15 10:51:33;;;;;;;18.80;12.05;;;;;;;22.69;44.88;64348.72;4995485;28;20217;-77
2023/10/15 10:54:28;;;;;;;11.10;5.00;;;;;;;22.78;44.01;64353.47;5007862;28;20265;-76
2023/10/15 10:57:08;;;;;;;6.95;4.78;;;;;;;22.65;44.20;64342.47;5008398;28;20257;-76
2023/10/15 10:59:38;;;;;;;5.35;4.47;;;;;;;22.66;44.10;64342.97;5008058;28;20418;-76
2023/10/15 11:02:13;;;;;;;9.40;4.50;;;;;;;22.49;44.29;64325.72;5006090;28;20214;-76
2023/10/15 11:04:41;;;;;;;8.40;4.60;;;;;;;22.54;44.23;64330.97;5009355;28;20215;-76
2023/10/15 11:07:11;;;;;;;10.10;4.55;;;;;;;22.65;43.91;64347.13;5009350;28;20256;-77
2023/10/15 11:09:39;;;;;;;8.88;4.78;;;;;;;22.88;43.16;64366.50;5006568;28;20563;-78
2023/10/15 11:12:07;;;;;;;8.93;4.50;;;;;;;;;;4990899;28;20219;-76
2023/10/15 11:14:36;;;;;;;5.72;4.10;;;;;;;23.05;41.70;64383.25;4988287;28;20266;-76
2023/10/15 11:17:04;;;;;;;13.02;5.47;;;;;;;23.12;42.16;64387.97;5002984;28;20199;-77
2023/10/15 11:19:32;;;;;;;6.30;4.22;;;;;;;23.29;40.33;64410.97;4997648;28;20214;-77
2023/10/15 11:21:59;;;;;;;7.75;3.03;;;;;;;23.13;37.78;64389.53;5009030;28;20207;-78
2023/10/15 11:24:28;;;;;;;5.05;3.60;;;;;;;23.21;38.96;64405.19;5002293;28;20227;-76
2023/10/15 11:26:56;;;;;;;6.78;3.95;;;;;;;23.47;37.39;64425.13;5000497;28;20261;-77
2023/10/15 11:29:25;;;;;;;7.82;3.05;;;;;;;23.63;37.01;64444.47;5008747;28;20231;-76
2023/10/15 11:31:55;;;;;;;7.97;3.47;;;;;;;23.72;37.23;64453.34;5006674;28;20244;-77
2023/10/15 11:34:24;;;;;;;5.78;3.70;;;;;;;23.87;37.32;64469.56;5005969;28;20210;-77
2023/10/15 11:36:55;;;;;;;4.13;3.47;;;;;;;23.94;37.16;64482.09;4995240;28;20426;-77
2023/10/15 11:39:29;;;;;;;4.85;3.58;;;;;;;24.00;37.21;64482.69;5007648;28;20209;-78
2023/10/15 11:41:58;;;;;;;9.90;4.35;;;;;;;24.02;38.67;64484.25;4997299;28;20205;-77
2023/10/15 11:44:30;;;;;;;4.40;3.58;;;;;;;23.73;39.16;64459.59;5003642;28;20224;-77
2023/10/15 11:46:59;;;;;;;5.65;4.25;;;;;;;23.51;39.57;64426.19;4998437;28;20226;-76